Time;durP1;ratioP1;P1;durP2;ratioP2;P2;SDS_P1;SDS_P2;PMS_P1;PMS_P2;Temp;Humidity;BMP_temperature;BMP_pressure;BME280_temperature;BME280_humidity;BME280_pressure;Samples;Min_cycle;Max_cycle;Signal;HPM_P1;HPM_P2
2022/03/02 00:01:49;;;;;;;35.13;14.60;;;;;;;-144.65;100.00;64500.88;5091530;28;20661;-74
2022/03/02 00:04:15;;;;;;;31.75;14.70;;;;;;;-144.65;100.00;64500.88;5090395;28;20077;-73
2022/03/02 00:06:40;;;;;;;30.27;15.30;;;;;;;-144.65;100.00;64500.88;5092107;28;20500;-74
2022/03/02 00:09:06;;;;;;;29.25;14.65;;;;;;;-144.65;100.00;64500.88;5091462;28;20484;-74
2022/03/02 00:11:31;;;;;;;29.80;15.80;;;;;;;-144.65;100.00;64500.88;5091653;28;20016;-74
2022/03/02 00:14:00;;;;;;;33.75;15.75;;;;;;;-144.65;100.00;64500.88;5091275;28;20030;-74
2022/03/02 00:16:28;;;;;;;32.67;15.73;;;;;;;-144.65;100.00;64500.88;5090164;28;20499;-74
2022/03/02 00:18:57;;;;;;;26.70;14.35;;;;;;;-144.65;100.00;64500.88;5087724;28;20020;-74
2022/03/02 00:21:23;;;;;;;34.63;15.88;;;;;;;-144.65;100.00;64500.88;5089892;28;20024;-74
2022/03/02 00:23:49;;;;;;;36.60;16.50;;;;;;;-144.65;100.00;64500.88;5090944;28;20124;-74
2022/03/02 00:26:15;;;;;;;32.58;16.95;;;;;;;-144.65;100.00;64500.88;5089228;28;20768;-74
2022/03/02 00:28:40;;;;;;;31.88;15.88;;;;;;;-144.65;100.00;64500.88;5091197;28;20048;-74
2022/03/02 00:31:06;;;;;;;33.63;16.00;;;;;;;-144.65;100.00;64500.88;5091172;28;20031;-75
2022/03/02 00:33:32;;;;;;;34.55;16.20;;;;;;;-144.65;100.00;64500.88;5092238;28;20016;-75
2022/03/02 00:35:57;;;;;;;43.38;16.52;;;;;;;-144.65;100.00;64500.88;5090647;28;20047;-73
2022/03/02 00:38:23;;;;;;;31.85;14.73;;;;;;;-144.65;100.00;64500.88;5089981;28;20522;-73
2022/03/02 00:40:48;;;;;;;40.38;16.30;;;;;;;-144.65;100.00;64500.88;5090840;28;20028;-74
2022/03/02 00:43:14;;;;;;;25.98;14.50;;;;;;;-144.65;100.00;64500.88;5088286;28;20036;-74
2022/03/02 00:45:39;;;;;;;35.33;16.42;;;;;;;-144.65;100.00;64500.88;5089536;28;20031;-74
2022/03/02 00:48:06;;;;;;;29.83;15.43;;;;;;;-144.65;100.00;64500.88;5090895;28;20027;-76
2022/03/02 00:50:32;;;;;;;32.40;16.98;;;;;;;-144.65;100.00;64500.88;5091676;28;20032;-75
2022/03/02 00:52:59;;;;;;;36.05;16.63;;;;;;;-144.65;100.00;64500.88;5073686;28;20366;-76
2022/03/02 00:55:25;;;;;;;31.13;16.15;;;;;;;-144.65;100.00;64500.88;5091851;28;20032;-76
2022/03/02 00:57:51;;;;;;;32.22;15.65;;;;;;;-144.65;100.00;64500.88;5091609;28;20473;-75
2022/03/02 01:00:17;;;;;;;33.05;15.30;;;;;;;-144.65;100.00;64500.88;5091208;28;20036;-76
2022/03/02 01:02:43;;;;;;;30.63;15.25;;;;;;;-144.65;100.00;64500.88;5091820;28;20059;-76
2022/03/02 01:05:09;;;;;;;32.70;15.73;;;;;;;-144.65;100.00;64500.88;5091701;28;20533;-76
2022/03/02 01:07:35;;;;;;;33.80;16.52;;;;;;;-144.65;100.00;64500.88;5092387;28;20035;-75
2022/03/02 01:10:02;;;;;;;34.13;15.75;;;;;;;-144.65;100.00;64500.88;5091594;28;20031;-75
2022/03/02 01:12:28;;;;;;;45.20;18.85;;;;;;;-144.65;100.00;64500.88;5091673;28;20043;-75
2022/03/02 01:14:53;;;;;;;48.35;19.05;;;;;;;-144.65;100.00;64500.88;5091387;28;20028;-75
2022/03/02 01:17:20;;;;;;;53.08;20.80;;;;;;;-144.65;100.00;64500.88;5091672;28;20036;-75
2022/03/02 01:19:46;;;;;;;50.42;19.65;;;;;;;-144.65;100.00;64500.88;5091113;28;20008;-76
2022/03/02 01:22:12;;;;;;;46.33;18.95;;;;;;;-144.65;100.00;64500.88;5091302;28;20031;-73
2022/03/02 01:24:37;;;;;;;41.80;19.27;;;;;;;-144.65;100.00;64500.88;5091354;28;20031;-73
2022/03/02 01:27:03;;;;;;;47.10;21.08;;;;;;;-144.65;100.00;64500.88;5091521;28;20019;-75
2022/03/02 01:29:30;;;;;;;41.08;20.08;;;;;;;-144.65;100.00;64500.88;5092322;28;20028;-76
2022/03/02 01:31:57;;;;;;;37.47;17.73;;;;;;;-144.65;100.00;64500.88;5092069;28;20016;-75
2022/03/02 01:34:22;;;;;;;43.03;19.08;;;;;;;-144.65;100.00;64500.88;5092767;28;20055;-76
2022/03/02 01:36:48;;;;;;;42.47;18.35;;;;;;;-144.65;100.00;64500.88;5091516;28;20477;-75
2022/03/02 01:39:13;;;;;;;37.22;17.35;;;;;;;-144.65;100.00;64500.88;5089155;28;20024;-76
2022/03/02 01:41:40;;;;;;;38.35;18.23;;;;;;;-144.65;100.00;64500.88;5091119;28;20062;-76
2022/03/02 01:44:05;;;;;;;39.90;17.00;;;;;;;-144.65;100.00;64500.88;5091381;28;20480;-75
2022/03/02 01:46:30;;;;;;;35.03;18.55;;;;;;;-144.65;100.00;64500.88;5089425;28;20042;-75
2022/03/02 01:48:56;;;;;;;36.10;16.70;;;;;;;-144.65;100.00;64500.88;5090843;28;20024;-75
2022/03/02 01:51:23;;;;;;;38.10;17.00;;;;;;;-144.65;100.00;64500.88;5091053;28;20107;-75
2022/03/02 01:53:48;;;;;;;32.22;15.82;;;;;;;-144.65;100.00;64500.88;5090686;28;20032;-74
2022/03/02 01:56:14;;;;;;;37.90;17.33;;;;;;;-144.65;100.00;64500.88;5089843;28;20039;-74
2022/03/02 01:58:40;;;;;;;37.53;17.60;;;;;;;-144.65;100.00;64500.88;5089466;28;20464;-72
2022/03/02 02:01:06;;;;;;;33.33;18.60;;;;;;;-144.65;100.00;64500.88;5090649;28;20028;-73
2022/03/02 02:03:33;;;;;;;38.80;18.73;;;;;;;-144.65;100.00;64500.88;5090206;28;20088;-73
2022/03/02 02:05:58;;;;;;;41.13;18.35;;;;;;;-144.65;100.00;64500.88;5090500;28;20028;-73
2022/03/02 02:08:25;;;;;;;37.92;17.05;;;;;;;-144.65;100.00;64500.88;5090806;28;20020;-73
2022/03/02 02:10:50;;;;;;;38.15;16.48;;;;;;;-144.65;100.00;64500.88;5090364;28;20019;-73
2022/03/02 02:13:17;;;;;;;36.83;17.80;;;;;;;-144.65;100.00;64500.88;5090683;28;20020;-76
2022/03/02 02:15:43;;;;;;;34.70;16.70;;;;;;;-144.65;100.00;64500.88;5090311;28;20032;-74
2022/03/02 02:18:08;;;;;;;42.75;17.58;;;;;;;-144.65;100.00;64500.88;5090796;28;20542;-75
2022/03/02 02:20:39;;;;;;;40.55;17.10;;;;;;;-144.65;100.00;64500.88;5090427;28;20547;-75
2022/03/02 02:23:05;;;;;;;30.73;15.60;;;;;;;-144.65;100.00;64500.88;5090318;28;20012;-74
2022/03/02 02:25:31;;;;;;;34.30;17.02;;;;;;;-144.65;100.00;64500.88;5091513;28;20059;-75
2022/03/02 02:27:56;;;;;;;33.22;16.63;;;;;;;-144.65;100.00;64500.88;5090562;28;20495;-75
2022/03/02 02:30:23;;;;;;;38.45;16.75;;;;;;;-144.65;100.00;64500.88;5090465;28;20040;-75
2022/03/02 02:32:49;;;;;;;37.97;17.48;;;;;;;-144.65;100.00;64500.88;5087578;28;20051;-75
2022/03/02 02:35:15;;;;;;;38.20;17.35;;;;;;;-144.65;100.00;64500.88;5069857;28;20102;-74
2022/03/02 02:37:40;;;;;;;43.72;17.33;;;;;;;-144.65;100.00;64500.88;5077500;28;20052;-75
2022/03/02 02:40:10;;;;;;;35.35;16.10;;;;;;;-144.65;100.00;64500.88;5090377;28;20475;-74
2022/03/02 02:42:37;;;;;;;33.83;16.23;;;;;;;-144.65;100.00;64500.88;5090333;28;20028;-75
2022/03/02 02:45:04;;;;;;;31.95;15.38;;;;;;;-144.65;100.00;64500.88;5090171;28;20054;-75
2022/03/02 02:47:30;;;;;;;31.23;14.98;;;;;;;-144.65;100.00;64500.88;5089648;28;20078;-75
2022/03/02 02:49:56;;;;;;;34.55;16.17;;;;;;;-144.65;100.00;64500.88;5083070;28;20044;-75
2022/03/02 02:52:21;;;;;;;28.15;15.75;;;;;;;-144.65;100.00;64500.88;5073564;28;20032;-73
2022/03/02 02:54:48;;;;;;;29.55;15.00;;;;;;;-144.65;100.00;64500.88;5073666;28;20029;-75
2022/03/02 02:57:13;;;;;;;30.88;16.58;;;;;;;-144.65;100.00;64500.88;5073559;28;20025;-75
2022/03/02 02:59:39;;;;;;;38.80;17.60;;;;;;;-144.65;100.00;64500.88;5073571;28;20045;-75
2022/03/02 03:02:04;;;;;;;36.00;17.38;;;;;;;-144.65;100.00;64500.88;5073841;28;20146;-73
2022/03/02 03:04:30;;;;;;;27.27;15.95;;;;;;;-144.65;100.00;64500.88;5073229;28;20020;-73
2022/03/02 03:06:55;;;;;;;34.28;17.38;;;;;;;-144.65;100.00;64500.88;5055655;28;20449;-72
2022/03/02 03:09:20;;;;;;;37.33;16.63;;;;;;;-144.65;100.00;64500.88;5076728;28;20016;-73
2022/03/02 03:11:46;;;;;;;39.70;16.48;;;;;;;-144.65;100.00;64500.88;5092547;28;20414;-73
2022/03/02 03:14:15;;;;;;;36.05;18.30;;;;;;;-144.65;100.00;64500.88;5093613;28;20039;-73
2022/03/02 03:16:41;;;;;;;36.17;18.20;;;;;;;-144.65;100.00;64500.88;5094285;28;20024;-73
2022/03/02 03:19:07;;;;;;;41.25;18.70;;;;;;;-144.65;100.00;64500.88;5094829;28;20055;-73
2022/03/02 03:21:33;;;;;;;39.33;18.13;;;;;;;-144.65;100.00;64500.88;5094331;28;20024;-72
2022/03/02 03:23:59;;;;;;;41.78;19.85;;;;;;;-144.65;100.00;64500.88;5094263;28;20027;-73
2022/03/02 03:26:25;;;;;;;44.95;19.70;;;;;;;-144.65;100.00;64500.88;5093359;28;20028;-73
2022/03/02 03:28:50;;;;;;;40.70;18.60;;;;;;;-144.65;100.00;64500.88;5093335;28;20042;-73
2022/03/02 03:31:16;;;;;;;39.38;19.63;;;;;;;-144.65;100.00;64500.88;5093278;28;20028;-73
2022/03/02 03:33:41;;;;;;;34.50;18.50;;;;;;;-144.65;100.00;64500.88;5092153;28;20028;-73
2022/03/02 03:36:07;;;;;;;34.92;16.77;;;;;;;-144.65;100.00;64500.88;5092819;28;20036;-73
2022/03/02 03:38:33;;;;;;;31.90;17.38;;;;;;;-144.65;100.00;64500.88;5093129;28;20032;-73
2022/03/02 03:40:59;;;;;;;32.92;16.42;;;;;;;-144.65;100.00;64500.88;5093041;28;20106;-73
2022/03/02 03:43:24;;;;;;;33.38;16.00;;;;;;;-144.65;100.00;64500.88;5092373;28;20458;-73
2022/03/02 03:45:51;;;;;;;39.30;16.42;;;;;;;-144.65;100.00;64500.88;5093467;28;20115;-73
2022/03/02 03:48:17;;;;;;;34.47;16.83;;;;;;;-144.65;100.00;64500.88;5093583;28;20118;-73
2022/03/02 03:50:44;;;;;;;34.45;17.17;;;;;;;-144.65;100.00;64500.88;5092756;28;20082;-72
2022/03/02 03:53:10;;;;;;;35.83;17.63;;;;;;;-144.65;100.00;64500.88;5092619;28;20020;-73
2022/03/02 03:55:38;;;;;;;31.85;16.58;;;;;;;-144.65;100.00;64500.88;5092557;28;20056;-73
2022/03/02 03:58:05;;;;;;;38.03;16.55;;;;;;;-144.65;100.00;64500.88;5092379;28;20040;-72
2022/03/02 04:00:31;;;;;;;31.65;15.70;;;;;;;-144.65;100.00;64500.88;5092783;28;20028;-72
2022/03/02 04:02:56;;;;;;;34.45;16.88;;;;;;;-144.65;100.00;64500.88;5092298;28;20419;-73
2022/03/02 04:05:22;;;;;;;34.75;16.73;;;;;;;-144.65;100.00;64500.88;5092486;28;20036;-73
2022/03/02 04:07:48;;;;;;;33.67;14.80;;;;;;;-144.65;100.00;64500.88;5092796;28;20472;-73
2022/03/02 04:10:14;;;;;;;34.47;16.85;;;;;;;-144.65;100.00;64500.88;5092457;28;20023;-74
2022/03/02 04:12:40;;;;;;;29.52;15.38;;;;;;;-144.65;100.00;64500.88;5091311;28;20081;-73
2022/03/02 04:15:06;;;;;;;33.15;16.17;;;;;;;-144.65;100.00;64500.88;5093075;28;20146;-73
2022/03/02 04:17:32;;;;;;;28.08;14.80;;;;;;;-144.65;100.00;64500.88;5091940;28;20114;-73
2022/03/02 04:19:57;;;;;;;31.38;15.50;;;;;;;-144.65;100.00;64500.88;5091789;28;20453;-72
2022/03/02 04:22:23;;;;;;;32.67;16.17;;;;;;;-144.65;100.00;64500.88;5091026;28;20572;-73
2022/03/02 04:24:48;;;;;;;35.10;15.55;;;;;;;-144.65;100.00;64500.88;5092184;28;20019;-73
2022/03/02 04:27:14;;;;;;;42.80;18.90;;;;;;;-144.65;100.00;64500.88;5092065;28;20467;-73
2022/03/02 04:29:39;;;;;;;39.70;19.05;;;;;;;-144.65;100.00;64500.88;5092084;28;20020;-73
2022/03/02 04:32:06;;;;;;;40.22;18.65;;;;;;;-144.65;100.00;64500.88;5092062;28;20028;-73
2022/03/02 04:34:31;;;;;;;35.90;18.17;;;;;;;-144.65;100.00;64500.88;5091852;28;20035;-73
2022/03/02 04:36:56;;;;;;;39.55;18.38;;;;;;;-144.65;100.00;64500.88;5092337;28;20032;-73
2022/03/02 04:39:22;;;;;;;34.72;17.45;;;;;;;-144.65;100.00;64500.88;5092156;28;20031;-73
2022/03/02 04:41:48;;;;;;;35.45;16.52;;;;;;;-144.65;100.00;64500.88;5092034;28;20565;-73
2022/03/02 04:44:14;;;;;;;33.22;16.75;;;;;;;-144.65;100.00;64500.88;5090599;28;20485;-73
2022/03/02 04:46:40;;;;;;;43.88;19.85;;;;;;;-144.65;100.00;64500.88;5091788;28;20136;-73
2022/03/02 04:49:13;;;;;;;41.58;18.38;;;;;;;-144.65;100.00;64500.88;5091873;28;20447;-73
2022/03/02 04:51:39;;;;;;;42.08;16.83;;;;;;;-144.65;100.00;64500.88;5091686;28;20366;-73
2022/03/02 04:54:06;;;;;;;42.35;17.55;;;;;;;-144.65;100.00;64500.88;5091800;28;20439;-73
2022/03/02 04:56:32;;;;;;;44.25;18.63;;;;;;;-144.65;100.00;64500.88;5090479;28;20538;-73
2022/03/02 04:58:57;;;;;;;39.40;16.88;;;;;;;-144.65;100.00;64500.88;5091501;28;20048;-74
2022/03/02 05:01:23;;;;;;;34.70;17.05;;;;;;;-144.65;100.00;64500.88;5091353;28;20491;-73
2022/03/02 05:03:48;;;;;;;36.83;18.38;;;;;;;-144.65;100.00;64500.88;5091463;28;20496;-74
2022/03/02 05:06:13;;;;;;;39.63;18.27;;;;;;;-144.65;100.00;64500.88;5091709;28;20480;-74
2022/03/02 05:08:39;;;;;;;36.08;16.95;;;;;;;-144.65;100.00;64500.88;5092004;28;20032;-73
2022/03/02 05:11:04;;;;;;;34.13;16.73;;;;;;;-144.65;100.00;64500.88;5092660;28;20073;-74
2022/03/02 05:13:31;;;;;;;36.45;16.83;;;;;;;-144.65;100.00;64500.88;5090829;28;20473;-73
2022/03/02 05:15:56;;;;;;;34.42;17.55;;;;;;;-144.65;100.00;64500.88;5091350;28;20049;-74
2022/03/02 05:18:21;;;;;;;49.25;18.08;;;;;;;-144.65;100.00;64500.88;5090153;28;20024;-73
2022/03/02 05:20:47;;;;;;;39.30;18.73;;;;;;;-144.65;100.00;64500.88;5091586;28;20480;-73
2022/03/02 05:23:12;;;;;;;40.58;18.00;;;;;;;-144.65;100.00;64500.88;5091327;28;20073;-73
2022/03/02 05:25:38;;;;;;;43.83;19.45;;;;;;;-144.65;100.00;64500.88;5091552;28;20020;-73
2022/03/02 05:28:03;;;;;;;39.38;18.40;;;;;;;-144.65;100.00;64500.88;5091379;28;20389;-74
2022/03/02 05:30:29;;;;;;;35.67;18.52;;;;;;;-144.65;100.00;64500.88;5091189;28;20028;-73
2022/03/02 05:32:54;;;;;;;38.55;18.25;;;;;;;-144.65;100.00;64500.88;5091086;28;20111;-73
2022/03/02 05:35:20;;;;;;;34.08;18.42;;;;;;;-144.65;100.00;64500.88;5091292;28;20028;-73
2022/03/02 05:37:46;;;;;;;38.63;19.45;;;;;;;-144.65;100.00;64500.88;5091684;28;20056;-73
2022/03/02 05:40:13;;;;;;;36.90;18.48;;;;;;;-144.65;100.00;64500.88;5091171;28;20027;-74
2022/03/02 05:42:39;;;;;;;39.13;19.05;;;;;;;-144.65;100.00;64500.88;5091036;28;20050;-73
2022/03/02 05:45:06;;;;;;;36.90;19.80;;;;;;;-144.65;100.00;64500.88;5091063;28;20476;-72
2022/03/02 05:47:32;;;;;;;35.83;18.83;;;;;;;-144.65;100.00;64500.88;5091053;28;20024;-74
2022/03/02 05:49:57;;;;;;;37.47;18.60;;;;;;;-144.65;100.00;64500.88;5090927;28;20503;-72
2022/03/02 05:52:24;;;;;;;50.03;19.02;;;;;;;-144.65;100.00;64500.88;5090868;28;20032;-73
2022/03/02 05:54:49;;;;;;;35.35;17.42;;;;;;;-144.65;100.00;64500.88;5091365;28;20602;-74
2022/03/02 05:57:15;;;;;;;38.13;17.58;;;;;;;-144.65;100.00;64500.88;5092276;28;20123;-73
2022/03/02 05:59:40;;;;;;;45.17;19.30;;;;;;;-144.65;100.00;64500.88;5091010;28;20044;-73
2022/03/02 06:02:05;;;;;;;45.58;19.05;;;;;;;-144.65;100.00;64500.88;5090837;28;20067;-74
2022/03/02 06:04:32;;;;;;;35.72;16.65;;;;;;;-144.65;100.00;64500.88;5089373;28;20043;-73
2022/03/02 06:06:57;;;;;;;38.72;18.55;;;;;;;-144.65;100.00;64500.88;5091356;28;20024;-74
2022/03/02 06:09:23;;;;;;;40.97;18.48;;;;;;;-144.65;100.00;64500.88;5090720;28;20090;-74
2022/03/02 06:11:49;;;;;;;36.08;16.55;;;;;;;-144.65;100.00;64500.88;5090697;28;20465;-73
2022/03/02 06:14:14;;;;;;;35.67;18.02;;;;;;;-144.65;100.00;64500.88;5090478;28;20431;-73
2022/03/02 06:16:42;;;;;;;37.17;17.27;;;;;;;-144.65;100.00;64500.88;5090521;28;20354;-72
2022/03/02 06:19:07;;;;;;;36.65;17.05;;;;;;;-144.65;100.00;64500.88;5090496;28;20016;-73
2022/03/02 06:21:33;;;;;;;45.15;19.00;;;;;;;-144.65;100.00;64500.88;5090252;28;20439;-73
2022/03/02 06:23:59;;;;;;;41.85;20.23;;;;;;;-144.65;100.00;64500.88;5090408;28;20035;-72
2022/03/02 06:26:27;;;;;;;42.28;19.13;;;;;;;-144.65;100.00;64500.88;5094078;28;20473;-72
2022/03/02 06:28:53;;;;;;;39.58;19.30;;;;;;;-144.65;100.00;64500.88;5094688;28;20036;-73
2022/03/02 06:31:19;;;;;;;40.03;19.25;;;;;;;-144.65;100.00;64500.88;5094587;28;20042;-73
2022/03/02 06:33:46;;;;;;;43.85;18.27;;;;;;;-144.65;100.00;64500.88;5094273;28;20524;-73
2022/03/02 06:36:11;;;;;;;44.60;21.65;;;;;;;-144.65;100.00;64500.88;5094408;28;20076;-73
2022/03/02 06:38:37;;;;;;;39.38;18.83;;;;;;;-144.65;100.00;64500.88;5094956;28;20028;-74
2022/03/02 06:41:11;;;;;;;38.95;17.80;;;;;;;-144.65;100.00;64500.88;5087219;28;20354;-73
2022/03/02 06:43:51;;;;;;;37.50;18.90;;;;;;;-144.65;100.00;64500.88;5073805;28;20119;-72
2022/03/02 06:46:31;;;;;;;39.33;19.17;;;;;;;-144.65;100.00;64500.88;5076234;28;20028;-72
2022/03/02 06:49:03;;;;;;;35.08;17.58;;;;;;;-144.65;100.00;64500.88;5073445;28;20032;-73
2022/03/02 06:51:30;;;;;;;43.28;18.67;;;;;;;-144.65;100.00;64500.88;5073717;28;20013;-73
2022/03/02 06:53:57;;;;;;;38.83;18.40;;;;;;;-144.65;100.00;64500.88;5086810;28;20028;-74
2022/03/02 06:56:27;;;;;;;37.60;18.98;;;;;;;-144.65;100.00;64500.88;5094093;28;20393;-73
2022/03/02 06:58:55;;;;;;;37.10;20.10;;;;;;;-144.65;100.00;64500.88;5080915;28;20059;-74
2022/03/02 07:01:27;;;;;;;37.28;20.77;;;;;;;-144.65;100.00;64500.88;5075161;28;20078;-74
2022/03/02 07:03:56;;;;;;;43.42;20.92;;;;;;;-144.65;100.00;64500.88;5073684;28;20552;-73
2022/03/02 07:06:23;;;;;;;40.05;20.92;;;;;;;-144.65;100.00;64500.88;5072005;28;20466;-73
2022/03/02 07:08:49;;;;;;;40.05;21.33;;;;;;;-144.65;100.00;64500.88;5073847;28;20724;-73
2022/03/02 07:11:16;;;;;;;41.25;20.67;;;;;;;-144.65;100.00;64500.88;5073340;28;20025;-73
2022/03/02 07:13:44;;;;;;;57.53;22.88;;;;;;;-144.65;100.00;64500.88;5073375;28;20012;-73
2022/03/02 07:16:14;;;;;;;47.65;22.05;;;;;;;-144.65;100.00;64500.88;5071827;28;20040;-73
2022/03/02 07:18:40;;;;;;;53.40;22.63;;;;;;;-144.65;100.00;64500.88;5073499;28;20032;-74
2022/03/02 07:21:14;;;;;;;46.38;23.70;;;;;;;-144.65;100.00;64500.88;5073089;28;20116;-74
2022/03/02 07:23:54;;;;;;;52.92;21.45;;;;;;;-144.65;100.00;64500.88;5073282;28;20032;-72
2022/03/02 07:26:21;;;;;;;42.53;20.33;;;;;;;-144.65;100.00;64500.88;5073103;28;20437;-72
2022/03/02 07:28:47;;;;;;;53.40;20.02;;;;;;;-144.65;100.00;64500.88;5073229;28;20149;-72
2022/03/02 07:31:14;;;;;;;43.30;20.05;;;;;;;-144.65;100.00;64500.88;5072972;28;20044;-72
2022/03/02 07:33:42;;;;;;;40.08;19.92;;;;;;;-144.65;100.00;64500.88;5072894;28;20107;-73
2022/03/02 07:36:09;;;;;;;47.33;20.17;;;;;;;-144.65;100.00;64500.88;5071774;28;20032;-73
2022/03/02 07:38:34;;;;;;;35.95;19.83;;;;;;;-144.65;100.00;64500.88;5073125;28;20024;-71
2022/03/02 07:41:00;;;;;;;34.50;18.13;;;;;;;-144.65;100.00;64500.88;5071473;28;20028;-72
2022/03/02 07:43:26;;;;;;;42.13;19.00;;;;;;;-144.65;100.00;64500.88;5072966;28;20028;-72
2022/03/02 07:45:51;;;;;;;39.03;19.70;;;;;;;-144.65;100.00;64500.88;5072713;28;20055;-72
2022/03/02 07:48:17;;;;;;;41.30;18.23;;;;;;;-144.65;100.00;64500.88;5072784;28;20042;-72
2022/03/02 07:50:43;;;;;;;32.38;19.75;;;;;;;-144.65;100.00;64500.88;5072529;28;20478;-72
2022/03/02 07:53:16;;;;;;;38.65;19.08;;;;;;;-144.65;100.00;64500.88;5072880;28;20024;-73
2022/03/02 07:55:44;;;;;;;35.90;19.45;;;;;;;-144.65;100.00;64500.88;5074212;28;20396;-76
2022/03/02 07:58:09;;;;;;;38.35;18.27;;;;;;;-144.65;100.00;64500.88;5073586;28;20507;-72
2022/03/02 08:00:36;;;;;;;34.70;20.13;;;;;;;-144.65;100.00;64500.88;5072222;28;20111;-73
2022/03/02 08:03:02;;;;;;;34.55;18.95;;;;;;;-144.65;100.00;64500.88;5072662;28;20033;-72
2022/03/02 08:05:29;;;;;;;33.53;18.33;;;;;;;-144.65;100.00;64500.88;5073827;28;20020;-74
2022/03/02 08:07:54;;;;;;;41.70;17.00;;;;;;;-144.65;100.00;64500.88;5076355;28;20025;-78
2022/03/02 08:10:19;;;;;;;32.28;17.55;;;;;;;-144.65;100.00;64500.88;5073435;28;20085;-72
2022/03/02 08:12:46;;;;;;;35.60;18.25;;;;;;;-144.65;100.00;64500.88;5072305;28;20029;-73
2022/03/02 08:15:11;;;;;;;30.20;17.55;;;;;;;-144.65;100.00;64500.88;5071993;28;20032;-73
2022/03/02 08:17:37;;;;;;;31.75;18.27;;;;;;;-144.65;100.00;64500.88;5072289;28;20021;-74
2022/03/02 08:20:04;;;;;;;32.83;18.00;;;;;;;-144.65;100.00;64500.88;5072099;28;20029;-72
2022/03/02 08:22:30;;;;;;;29.42;17.65;;;;;;;-144.65;100.00;64500.88;5070695;28;20237;-72
2022/03/02 08:25:02;;;;;;;28.80;17.35;;;;;;;-144.65;100.00;64500.88;5072048;28;20098;-72
2022/03/02 08:27:29;;;;;;;31.83;17.15;;;;;;;-144.65;100.00;64500.88;5071953;28;20174;-72
2022/03/02 08:29:56;;;;;;;28.63;16.63;;;;;;;-144.65;100.00;64500.88;5071967;28;20028;-72
2022/03/02 08:32:24;;;;;;;32.25;17.35;;;;;;;-144.65;100.00;64500.88;5071722;28;20016;-72
2022/03/02 08:34:51;;;;;;;37.70;18.63;;;;;;;-144.65;100.00;64500.88;5080059;28;20036;-73
2022/03/02 08:37:20;;;;;;;32.28;15.98;;;;;;;-144.65;100.00;64500.88;5091446;28;20035;-72
2022/03/02 08:39:46;;;;;;;29.30;16.27;;;;;;;-144.65;100.00;64500.88;5091136;28;20032;-72
2022/03/02 08:42:12;;;;;;;28.23;16.85;;;;;;;-144.65;100.00;64500.88;5090990;28;20032;-72
2022/03/02 08:44:38;;;;;;;27.70;17.63;;;;;;;-144.65;100.00;64500.88;5091824;28;20032;-73
2022/03/02 08:47:04;;;;;;;28.45;16.52;;;;;;;-144.65;100.00;64500.88;5091788;28;20066;-72
2022/03/02 08:49:29;;;;;;;26.15;15.95;;;;;;;-144.65;100.00;64500.88;5091673;28;20036;-72
2022/03/02 08:51:56;;;;;;;28.90;16.63;;;;;;;-144.65;100.00;64500.88;5093714;28;20024;-72
2022/03/02 08:54:22;;;;;;;34.80;16.55;;;;;;;-144.65;100.00;64500.88;5091783;28;20031;-72
2022/03/02 08:56:49;;;;;;;26.38;16.05;;;;;;;-144.65;100.00;64500.88;5091441;28;20465;-73
2022/03/02 08:59:15;;;;;;;33.38;17.48;;;;;;;-144.65;100.00;64500.88;5091578;28;20043;-72
2022/03/02 09:01:44;;;;;;;28.08;16.23;;;;;;;-144.65;100.00;64500.88;5091232;28;20028;-73
2022/03/02 09:04:15;;;;;;;29.80;17.38;;;;;;;-144.65;100.00;64500.88;5091755;28;20032;-72
2022/03/02 09:06:41;;;;;;;26.15;16.30;;;;;;;-144.65;100.00;64500.88;5091542;28;20028;-72
2022/03/02 09:09:06;;;;;;;28.50;16.30;;;;;;;-144.65;100.00;64500.88;5090818;28;20070;-72
2022/03/02 09:11:32;;;;;;;27.83;17.15;;;;;;;-144.65;100.00;64500.88;5091671;28;20024;-72
2022/03/02 09:14:00;;;;;;;31.55;17.73;;;;;;;-144.65;100.00;64500.88;5091777;28;20024;-72
2022/03/02 09:16:26;;;;;;;34.70;16.73;;;;;;;-144.65;100.00;64500.88;5091408;28;20024;-72
2022/03/02 09:18:51;;;;;;;33.60;15.85;;;;;;;-144.65;100.00;64500.88;5085777;28;20054;-73
2022/03/02 09:21:19;;;;;;;27.20;16.35;;;;;;;-144.65;100.00;64500.88;5088856;28;20376;-74
2022/03/02 09:23:45;;;;;;;28.05;16.95;;;;;;;-144.65;100.00;64500.88;5083858;28;20019;-72
2022/03/02 09:26:13;;;;;;;26.17;17.45;;;;;;;-144.65;100.00;64500.88;5091379;28;20024;-72
2022/03/02 09:28:43;;;;;;;29.23;17.13;;;;;;;-144.65;100.00;64500.88;5089369;28;20043;-72
2022/03/02 09:31:11;;;;;;;31.10;17.20;;;;;;;-144.65;100.00;64500.88;5086211;28;20035;-72
2022/03/02 09:33:37;;;;;;;27.08;16.45;;;;;;;-144.65;100.00;64500.88;5089811;28;20032;-73
2022/03/02 09:36:06;;;;;;;27.92;17.63;;;;;;;-144.65;100.00;64500.88;5090062;28;20085;-73
2022/03/02 09:38:33;;;;;;;31.73;17.15;;;;;;;-144.65;100.00;64500.88;5088738;28;20020;-72
2022/03/02 09:41:09;;;;;;;31.33;16.85;;;;;;;-144.65;100.00;64500.88;5085778;28;20027;-72
2022/03/02 09:43:35;;;;;;;;;;;;;;;-144.65;100.00;64500.88;5083464;28;20035;-72
2022/03/02 09:46:09;;;;;;;27.38;17.30;;;;;;;-144.65;100.00;64500.88;5082037;28;20270;-74
2022/03/02 09:48:41;;;;;;;34.20;16.17;;;;;;;-144.65;100.00;64500.88;5088880;28;20077;-71
2022/03/02 09:51:08;;;;;;;40.88;17.00;;;;;;;-144.65;100.00;64500.88;5089576;28;20024;-72
2022/03/02 09:53:35;;;;;;;30.67;17.40;;;;;;;-144.65;100.00;64500.88;5090955;28;20099;-72
2022/03/02 09:56:06;;;;;;;27.52;15.30;;;;;;;-144.65;100.00;64500.88;5090449;28;20024;-71
2022/03/02 09:58:38;;;;;;;26.45;14.70;;;;;;;-144.65;100.00;64500.88;5088357;28;20386;-72
2022/03/02 10:01:10;;;;;;;22.95;14.45;;;;;;;-144.65;100.00;64500.88;5089757;28;20024;-78
2022/03/02 10:03:37;;;;;;;24.25;14.70;;;;;;;-144.65;100.00;64500.88;5089784;28;20091;-75
2022/03/02 10:06:05;;;;;;;20.55;14.38;;;;;;;-144.65;100.00;64500.88;5090215;28;20023;-80
2022/03/02 10:08:39;;;;;;;23.63;14.73;;;;;;;-144.65;100.00;64500.88;5088779;28;20103;-74
2022/03/02 10:11:06;;;;;;;23.40;15.60;;;;;;;-144.65;100.00;64500.88;5088231;28;20416;-72
2022/03/02 10:13:33;;;;;;;21.88;14.23;;;;;;;-144.65;100.00;64500.88;5091941;28;20024;-74
2022/03/02 10:16:02;;;;;;;23.02;14.50;;;;;;;-144.65;100.00;64500.88;5095030;28;20476;-74
2022/03/02 10:18:32;;;;;;;20.83;14.00;;;;;;;-144.65;100.00;64500.88;5095988;28;20016;-77
2022/03/02 10:21:01;;;;;;;21.08;14.15;;;;;;;-144.65;100.00;64500.88;5096031;28;20044;-74
2022/03/02 10:23:37;;;;;;;23.42;14.10;;;;;;;-144.65;100.00;64500.88;5090740;28;20046;-73
2022/03/02 10:26:16;;;;;;;20.23;12.70;;;;;;;-144.65;100.00;64500.88;5085337;28;20026;-72
2022/03/02 10:28:50;;;;;;;20.58;13.30;;;;;;;-144.65;100.00;64500.88;5087933;28;20110;-73
2022/03/02 10:31:42;;;;;;;21.67;13.32;;;;;;;-144.65;100.00;64500.88;5089480;28;20028;-73
2022/03/02 10:34:25;;;;;;;22.23;12.02;;;;;;;-144.65;100.00;64500.88;5087987;28;20081;-73
2022/03/02 10:37:16;;;;;;;19.25;11.40;;;;;;;-144.65;100.00;64500.88;5088572;28;20028;-73
2022/03/02 10:39:56;;;;;;;21.60;12.00;;;;;;;-144.65;100.00;64500.88;5086510;28;20043;-75
2022/03/02 10:42:26;;;;;;;18.60;11.65;;;;;;;-144.65;100.00;64500.88;5085812;28;20016;-73
2022/03/02 10:45:12;;;;;;;18.55;11.60;;;;;;;-144.65;100.00;64500.88;5089191;28;20107;-72
2022/03/02 10:47:46;;;;;;;20.52;11.60;;;;;;;-144.65;100.00;64500.88;5070359;28;20021;-72
2022/03/02 10:50:13;;;;;;;16.52;11.60;;;;;;;-144.65;100.00;64500.88;5070345;28;20078;-72
2022/03/02 10:52:40;;;;;;;23.33;11.82;;;;;;;-144.65;100.00;64500.88;5070462;28;20115;-74
2022/03/02 10:55:10;;;;;;;16.00;10.82;;;;;;;-144.65;100.00;64500.88;5070317;28;20075;-72